Time;durP1;ratioP1;P1;durP2;ratioP2;P2;SDS_P1;SDS_P2;PMS_P1;PMS_P2;Temp;Humidity;BMP_temperature;BMP_pressure;BME280_temperature;BME280_humidity;BME280_pressure;Samples;Min_cycle;Max_cycle;Signal;HPM_P1;HPM_P2
2021/07/21 00:00:37;;;;;;;13.40;9.73;;;20.00;76.80;;;;;;6216614;23;20017;-78
2021/07/21 00:03:04;;;;;;;16.08;9.85;;;20.00;76.90;;;;;;6190056;23;20048;-77
2021/07/21 00:05:35;;;;;;;20.67;10.10;;;20.00;76.80;;;;;;6216541;23;20111;-74
2021/07/21 00:08:03;;;;;;;13.98;9.77;;;19.90;76.60;;;;;;6216360;23;20020;-76
2021/07/21 00:10:31;;;;;;;13.45;9.18;;;19.90;76.70;;;;;;6216499;23;20031;-76
2021/07/21 00:20:05;;;;;;;18.40;9.45;;;19.80;76.90;;;;;;6215552;23;20342;-76
2021/07/21 00:21:20;;;;;;;12.43;9.10;;;19.80;76.80;;;;;;6207983;23;20016;-78
2021/07/21 00:23:47;;;;;;;21.52;9.70;;;19.70;76.90;;;;;;6215890;23;20027;-77
2021/07/21 00:26:15;;;;;;;15.57;8.93;;;19.80;77.00;;;;;;6216336;23;20031;-75
2021/07/21 00:28:42;;;;;;;16.98;9.38;;;19.70;77.00;;;;;;6215885;23;20027;-77
2021/07/21 00:31:10;;;;;;;14.65;9.30;;;19.60;77.00;;;;;;6215590;23;20024;-77
2021/07/21 00:33:38;;;;;;;15.00;8.90;;;19.60;77.10;;;;;;6215617;23;20024;-76
2021/07/21 00:36:05;;;;;;;16.15;9.52;;;19.60;77.10;;;;;;6215651;23;20039;-76
2021/07/21 00:38:32;;;;;;;14.95;9.23;;;19.50;77.20;;;;;;6190146;23;20024;-77
2021/07/21 00:40:59;;;;;;;14.23;9.88;;;19.50;77.30;;;;;;6216180;23;20016;-76
2021/07/21 00:43:28;;;;;;;13.35;9.75;;;19.50;77.20;;;;;;6216171;23;20021;-76
2021/07/21 00:45:55;;;;;;;18.30;10.35;;;19.40;77.20;;;;;;6215748;23;20020;-77
2021/07/21 00:48:22;;;;;;;14.55;9.48;;;19.50;77.10;;;;;;6216029;23;20024;-77
2021/07/21 00:50:52;;;;;;;18.38;10.52;;;19.50;77.10;;;;;;6215994;23;20043;-77
2021/07/21 00:53:19;;;;;;;35.72;11.13;;;19.40;77.20;;;;;;6189422;23;20372;-77
2021/07/21 00:55:47;;;;;;;15.15;9.50;;;19.40;77.30;;;;;;6189134;23;20020;-75
2021/07/21 00:58:15;;;;;;;13.48;9.98;;;19.40;77.40;;;;;;6215566;23;20486;-78
2021/07/21 01:00:42;;;;;;;12.98;10.05;;;19.40;77.60;;;;;;6215222;23;20027;-77
2021/07/21 01:03:10;;;;;;;22.10;10.40;;;19.30;77.60;;;;;;6215545;23;20023;-77
2021/07/21 01:05:42;;;;;;;12.82;9.95;;;19.30;77.40;;;;;;6215905;23;20100;-79
2021/07/21 01:08:12;;;;;;;23.13;10.20;;;19.30;77.40;;;;;;6189056;23;20074;-75
2021/07/21 01:10:58;;;;;;;16.75;10.25;;;19.30;77.40;;;;;;6215481;23;20477;-76
2021/07/21 01:13:29;;;;;;;17.20;9.82;;;19.20;77.50;;;;;;6215514;23;20031;-76
2021/07/21 01:16:07;;;;;;;13.90;9.30;;;19.20;77.60;;;;;;6188865;23;20046;-76
2021/07/21 01:18:50;;;;;;;16.45;9.27;;;19.20;77.60;;;;;;6215354;23;20023;-76
2021/07/21 01:21:45;;;;;;;12.05;9.50;;;19.20;77.60;;;;;;6215225;23;20487;-75
2021/07/21 01:24:21;;;;;;;15.80;9.93;;;19.10;77.60;;;;;;6215299;23;20555;-78
2021/07/21 01:27:20;;;;;;;13.30;9.80;;;19.10;77.60;;;;;;6215696;23;20021;-76
2021/07/21 01:29:51;;;;;;;15.00;9.73;;;19.10;77.70;;;;;;6215402;23;20042;-77
2021/07/21 01:32:20;;;;;;;16.20;9.95;;;19.00;77.70;;;;;;6189245;23;20021;-76
2021/07/21 01:34:51;;;;;;;18.40;10.13;;;19.00;77.60;;;;;;6214976;23;20023;-77
2021/07/21 01:37:19;;;;;;;14.45;10.05;;;18.90;77.70;;;;;;6188710;23;20017;-77
2021/07/21 01:39:50;;;;;;;16.20;9.00;;;18.90;77.60;;;;;;6215231;23;20027;-76
2021/07/21 01:42:19;;;;;;;14.52;9.60;;;18.90;77.40;;;;;;6215491;23;20023;-76
2021/07/21 01:44:49;;;;;;;16.05;9.90;;;18.90;77.40;;;;;;6215285;23;20020;-76
2021/07/21 01:47:22;;;;;;;15.02;10.27;;;18.90;77.60;;;;;;6215493;23;20020;-77
2021/07/21 01:49:53;;;;;;;15.70;10.27;;;18.90;77.70;;;;;;6215580;23;20048;-75
2021/07/21 01:52:25;;;;;;;13.80;9.95;;;18.80;77.80;;;;;;6215121;23;20524;-77
2021/07/21 01:54:59;;;;;;;13.95;10.32;;;18.80;77.90;;;;;;6214821;23;20597;-77
2021/07/21 01:57:31;;;;;;;16.20;10.27;;;18.80;77.90;;;;;;6190045;23;20326;-77
2021/07/21 02:00:01;;;;;;;18.52;10.52;;;18.70;78.00;;;;;;6214726;23;20020;-75
2021/07/21 02:02:29;;;;;;;15.88;10.70;;;18.70;78.20;;;;;;6215432;23;20021;-74
2021/07/21 02:04:59;;;;;;;17.92;11.15;;;18.70;78.30;;;;;;6215371;23;20060;-76
2021/07/21 02:07:27;;;;;;;18.13;10.57;;;18.60;78.30;;;;;;6215232;23;20020;-77
2021/07/21 02:09:54;;;;;;;16.05;10.32;;;18.70;78.30;;;;;;6215330;23;20031;-78
2021/07/21 02:12:21;;;;;;;15.85;10.90;;;18.60;78.20;;;;;;6189050;23;20020;-77
2021/07/21 02:14:49;;;;;;;18.08;11.52;;;18.60;78.10;;;;;;6188158;23;20360;-77
2021/07/21 02:17:18;;;;;;;17.33;10.98;;;18.60;78.10;;;;;;6188666;23;20017;-78
2021/07/21 02:19:46;;;;;;;20.63;11.80;;;18.50;78.10;;;;;;6215277;23;20017;-76
2021/07/21 02:22:18;;;;;;;16.65;11.30;;;18.60;77.90;;;;;;6188970;23;20051;-76
2021/07/21 02:24:46;;;;;;;23.65;10.80;;;18.60;78.00;;;;;;6214892;23;20020;-78
2021/07/21 02:27:13;;;;;;;16.45;10.30;;;18.50;78.10;;;;;;6215013;23;20020;-75
2021/07/21 02:29:41;;;;;;;17.42;10.02;;;18.50;77.80;;;;;;6215216;23;20021;-76
2021/07/21 02:32:20;;;;;;;21.23;9.82;;;18.50;77.70;;;;;;6215326;23;20020;-78
2021/07/21 02:34:47;;;;;;;15.00;9.77;;;18.50;77.80;;;;;;6215150;23;20025;-76
2021/07/21 02:37:16;;;;;;;14.68;9.85;;;18.40;78.00;;;;;;6214876;23;20026;-77
2021/07/21 02:39:45;;;;;;;18.90;10.25;;;18.40;78.00;;;;;;6215125;23;20017;-77
2021/07/21 02:42:13;;;;;;;20.85;9.75;;;18.40;78.10;;;;;;6214627;23;20368;-78
2021/07/21 02:44:43;;;;;;;13.98;9.95;;;18.40;78.10;;;;;;6214707;23;20024;-77
2021/07/21 02:47:11;;;;;;;17.95;10.60;;;18.40;78.30;;;;;;6190281;23;20021;-77
2021/07/21 02:49:39;;;;;;;12.75;9.45;;;18.30;78.30;;;;;;6217174;23;20020;-76
2021/07/21 02:52:23;;;;;;;14.80;10.30;;;18.30;78.40;;;;;;6216969;23;20048;-76
2021/07/21 02:55:09;;;;;;;16.30;10.23;;;18.30;78.50;;;;;;6216963;23;20020;-77
2021/07/21 02:57:55;;;;;;;21.35;12.02;;;18.20;78.40;;;;;;6216738;23;20017;-75
2021/07/21 03:00:26;;;;;;;16.48;11.02;;;18.20;78.40;;;;;;6216629;23;20472;-75
2021/07/21 03:02:53;;;;;;;20.08;11.10;;;18.20;78.30;;;;;;6190597;23;20104;-80
2021/07/21 03:05:25;;;;;;;14.80;10.68;;;18.20;78.30;;;;;;6190215;23;20025;-76
2021/07/21 03:07:55;;;;;;;18.33;10.90;;;18.10;78.40;;;;;;6216781;23;20021;-75
2021/07/21 03:10:22;;;;;;;18.40;11.57;;;18.10;78.50;;;;;;6216900;23;20024;-76
2021/07/21 03:13:01;;;;;;;15.80;11.00;;;18.10;78.50;;;;;;6216172;23;20020;-76
2021/07/21 03:15:31;;;;;;;21.10;11.50;;;18.10;78.50;;;;;;6190094;23;20352;-76
2021/07/21 03:18:00;;;;;;;15.38;10.80;;;18.00;78.50;;;;;;6216376;23;20021;-76
2021/07/21 03:20:28;;;;;;;18.52;11.07;;;18.00;78.50;;;;;;6216792;23;20444;-77
2021/07/21 03:22:58;;;;;;;16.20;10.88;;;18.00;78.60;;;;;;6189979;23;20359;-77
2021/07/21 03:25:27;;;;;;;19.38;10.05;;;18.00;78.50;;;;;;6216170;23;20020;-76
2021/07/21 03:27:55;;;;;;;19.70;10.82;;;18.00;78.50;;;;;;6216287;23;20364;-77
2021/07/21 03:30:23;;;;;;;21.65;11.30;;;18.00;78.60;;;;;;6190487;23;20020;-78
2021/07/21 03:32:51;;;;;;;17.25;11.02;;;17.90;78.40;;;;;;6216236;23;20025;-77
2021/07/21 03:35:23;;;;;;;16.38;10.23;;;17.90;78.40;;;;;;6216280;23;20486;-78
2021/07/21 03:37:51;;;;;;;16.52;10.73;;;17.90;78.40;;;;;;6216079;23;20372;-76
2021/07/21 03:40:19;;;;;;;23.45;10.48;;;17.90;78.50;;;;;;6190338;23;20017;-77
2021/07/21 03:42:52;;;;;;;33.15;10.90;;;17.90;78.50;;;;;;6190189;23;20043;-77
2021/07/21 03:45:22;;;;;;;13.32;9.70;;;17.90;78.60;;;;;;6216653;23;20095;-77
2021/07/21 03:47:50;;;;;;;18.05;10.60;;;17.90;78.70;;;;;;6216772;23;20032;-75
2021/07/21 03:50:21;;;;;;;13.85;9.85;;;17.90;78.70;;;;;;6190408;23;20027;-78
2021/07/21 03:52:50;;;;;;;19.27;10.48;;;17.80;78.80;;;;;;6216657;23;20043;-74
2021/07/21 03:55:19;;;;;;;19.73;10.45;;;17.80;78.80;;;;;;6215956;23;20021;-77
2021/07/21 03:57:47;;;;;;;19.48;11.02;;;17.80;78.80;;;;;;6190153;23;20023;-77
2021/07/21 04:00:19;;;;;;;20.10;10.05;;;17.70;78.80;;;;;;6216559;23;20356;-78
2021/07/21 04:02:52;;;;;;;18.83;11.35;;;17.70;78.80;;;;;;6216612;23;20017;-78
2021/07/21 04:05:21;;;;;;;16.48;11.63;;;17.70;78.80;;;;;;6216572;23;20025;-77
2021/07/21 04:07:49;;;;;;;15.85;11.57;;;17.70;78.70;;;;;;6215914;23;20551;-75
2021/07/21 04:10:16;;;;;;;17.80;12.07;;;17.70;78.70;;;;;;6216204;23;20026;-75
2021/07/21 04:12:46;;;;;;;22.52;11.82;;;17.70;78.70;;;;;;6216503;23;20027;-76
2021/07/21 04:15:13;;;;;;;21.63;12.40;;;17.60;78.70;;;;;;6216348;23;20021;-76
2021/07/21 04:17:41;;;;;;;22.42;12.65;;;17.60;78.80;;;;;;6190107;23;20016;-79
2021/07/21 04:20:10;;;;;;;22.25;12.80;;;17.60;78.70;;;;;;6216014;23;20456;-75
2021/07/21 04:22:39;;;;;;;21.83;12.27;;;17.60;78.80;;;;;;6216026;23;20020;-76
2021/07/21 04:25:09;;;;;;;21.63;11.73;;;17.60;78.90;;;;;;6216108;23;20020;-77
2021/07/21 04:27:40;;;;;;;24.95;11.98;;;17.60;79.00;;;;;;6215990;23;20024;-76
2021/07/21 04:30:08;;;;;;;20.75;12.77;;;17.60;79.10;;;;;;6189612;23;20483;-77
2021/07/21 04:32:36;;;;;;;18.80;12.55;;;17.60;79.20;;;;;;6215912;23;20025;-77
2021/07/21 04:35:06;;;;;;;19.17;12.57;;;17.60;79.30;;;;;;6189483;23;20020;-77
2021/07/21 04:37:35;;;;;;;19.67;13.35;;;17.60;79.30;;;;;;6215429;23;20027;-77
2021/07/21 04:40:04;;;;;;;25.25;13.25;;;17.60;79.40;;;;;;6189453;23;20017;-77
2021/07/21 04:42:31;;;;;;;20.98;13.27;;;17.50;79.30;;;;;;6216182;23;20017;-76
2021/07/21 04:44:58;;;;;;;22.08;13.10;;;17.60;79.40;;;;;;6216176;23;20020;-75
2021/07/21 04:47:25;;;;;;;21.73;13.05;;;17.50;79.50;;;;;;6215661;23;20020;-75
2021/07/21 04:49:53;;;;;;;23.48;13.68;;;17.60;79.60;;;;;;6216082;23;20028;-77
2021/07/21 04:52:25;;;;;;;29.65;12.95;;;17.50;79.60;;;;;;6189516;23;20020;-77
2021/07/21 04:54:52;;;;;;;29.73;13.65;;;17.60;79.60;;;;;;6215970;23;20020;-76
2021/07/21 04:57:22;;;;;;;24.55;12.30;;;17.60;79.70;;;;;;6216024;23;20359;-76
2021/07/21 04:59:49;;;;;;;25.15;13.15;;;17.60;79.50;;;;;;6215514;23;20468;-77
2021/07/21 05:02:19;;;;;;;23.30;13.55;;;17.60;79.40;;;;;;6215639;23;20039;-77
2021/07/21 05:04:47;;;;;;;27.52;12.57;;;17.60;79.50;;;;;;6215645;23;20021;-76
2021/07/21 05:07:16;;;;;;;23.25;13.57;;;17.60;79.60;;;;;;6215564;23;20039;-76
2021/07/21 05:09:44;;;;;;;19.80;12.25;;;17.60;79.70;;;;;;6215216;23;20023;-76
2021/07/21 05:12:11;;;;;;;25.10;13.20;;;17.60;79.90;;;;;;6215808;23;20016;-75
2021/07/21 05:14:38;;;;;;;22.48;12.63;;;17.70;80.00;;;;;;6215566;23;20016;-77
2021/07/21 05:17:05;;;;;;;23.70;11.55;;;17.70;79.80;;;;;;6215359;23;20023;-77
2021/07/21 05:19:32;;;;;;;26.33;12.60;;;17.70;79.30;;;;;;6215399;23;20531;-74
2021/07/21 05:22:03;;;;;;;28.92;13.20;;;17.70;79.10;;;;;;6215455;23;20075;-75
2021/07/21 05:24:30;;;;;;;30.52;12.73;;;17.70;79.10;;;;;;6215717;23;20345;-77
2021/07/21 05:26:57;;;;;;;30.23;13.07;;;17.70;79.20;;;;;;6215668;23;20043;-77
2021/07/21 05:29:24;;;;;;;26.52;13.13;;;17.70;79.20;;;;;;6215755;23;20028;-76
2021/07/21 05:31:51;;;;;;;31.35;15.25;;;17.70;79.20;;;;;;6215270;23;20024;-75
2021/07/21 05:34:18;;;;;;;22.15;12.80;;;17.70;79.20;;;;;;6215592;23;20084;-74
2021/07/21 05:36:45;;;;;;;34.00;14.07;;;17.70;79.20;;;;;;6214961;23;20024;-76
2021/07/21 05:39:16;;;;;;;22.70;13.75;;;17.70;79.30;;;;;;6215055;23;20476;-74
2021/07/21 05:41:44;;;;;;;28.30;13.48;;;17.80;79.60;;;;;;6213381;23;20095;-77
2021/07/21 05:44:12;;;;;;;21.73;14.25;;;17.80;79.70;;;;;;6215315;23;20377;-78
2021/07/21 05:46:39;;;;;;;23.83;13.52;;;17.80;79.20;;;;;;6188613;23;20027;-75
2021/07/21 05:49:06;;;;;;;25.75;15.15;;;17.80;79.20;;;;;;6213381;23;20047;-76
2021/07/21 05:51:33;;;;;;;29.48;15.23;;;17.80;79.20;;;;;;6212876;23;20024;-76
2021/07/21 05:54:00;;;;;;;23.65;14.75;;;17.80;79.40;;;;;;6187421;23;20021;-75
2021/07/21 05:56:27;;;;;;;30.95;15.15;;;17.90;79.50;;;;;;6188477;23;20017;-76
2021/07/21 05:58:54;;;;;;;25.52;14.15;;;17.90;79.70;;;;;;6215219;23;20023;-79
2021/07/21 06:01:21;;;;;;;26.85;14.27;;;17.90;79.80;;;;;;6188584;23;20330;-77
2021/07/21 06:03:48;;;;;;;22.50;15.82;;;17.90;79.90;;;;;;6188599;23;20024;-78
2021/07/21 06:06:15;;;;;;;34.13;18.08;;;18.00;80.10;;;;;;6214960;23;20020;-77
2021/07/21 06:08:43;;;;;;;30.27;17.00;;;18.00;80.30;;;;;;6188833;23;20025;-77
2021/07/21 06:11:10;;;;;;;25.23;16.30;;;18.10;80.40;;;;;;6215193;23;20099;-78
2021/07/21 06:13:37;;;;;;;35.65;20.65;;;18.10;80.60;;;;;;6188393;23;20444;-76
2021/07/21 06:16:07;;;;;;;34.55;21.25;;;18.30;80.70;;;;;;6214990;23;20021;-76
2021/07/21 06:18:35;;;;;;;31.27;18.58;;;18.30;80.60;;;;;;6214627;23;20052;-77
2021/07/21 06:21:03;;;;;;;28.55;18.80;;;18.40;80.70;;;;;;6214722;23;20017;-76
2021/07/21 06:23:31;;;;;;;41.03;20.52;;;18.40;80.70;;;;;;6217302;23;20023;-76
2021/07/21 06:25:58;;;;;;;35.75;20.85;;;18.50;80.70;;;;;;6190942;23;20021;-77
2021/07/21 06:28:25;;;;;;;35.72;22.13;;;18.60;80.50;;;;;;6190422;23;20020;-77
2021/07/21 06:30:52;;;;;;;34.17;21.67;;;18.60;80.30;;;;;;6190490;23;20103;-76
2021/07/21 06:33:20;;;;;;;36.08;20.73;;;18.70;80.10;;;;;;6190272;23;20026;-77
2021/07/21 06:35:48;;;;;;;36.78;20.80;;;18.80;80.10;;;;;;6216162;23;20091;-74
2021/07/21 06:38:15;;;;;;;30.48;21.13;;;18.90;80.10;;;;;;6217243;23;20017;-78
2021/07/21 06:40:42;;;;;;;32.17;20.23;;;18.90;80.20;;;;;;6217046;23;20017;-75
2021/07/21 06:43:09;;;;;;;43.17;23.42;;;19.00;80.20;;;;;;6216701;23;20020;-76
2021/07/21 06:45:36;;;;;;;33.53;21.90;;;19.10;80.10;;;;;;6216794;23;20024;-77
2021/07/21 06:48:03;;;;;;;29.58;20.73;;;19.10;80.40;;;;;;6190310;23;20024;-78
2021/07/21 06:50:30;;;;;;;34.63;21.88;;;19.20;80.40;;;;;;6216835;23;20020;-77
2021/07/21 06:53:00;;;;;;;32.30;21.55;;;19.30;80.40;;;;;;6191104;23;20020;-77
2021/07/21 06:55:27;;;;;;;38.22;21.75;;;19.40;80.30;;;;;;6216445;23;20025;-79
2021/07/21 06:57:54;;;;;;;33.15;21.20;;;19.40;80.10;;;;;;6216482;23;20020;-75
2021/07/21 07:00:22;;;;;;;36.63;22.63;;;19.50;80.00;;;;;;6216504;23;20017;-76
2021/07/21 07:02:49;;;;;;;44.60;22.08;;;19.60;80.10;;;;;;6215933;23;20027;-76
2021/07/21 07:05:16;;;;;;;38.58;22.70;;;19.60;80.10;;;;;;6216729;23;20024;-77
2021/07/21 07:07:43;;;;;;;39.85;22.17;;;19.70;79.90;;;;;;6190421;23;20021;-77
2021/07/21 07:10:11;;;;;;;36.92;21.50;;;19.70;79.70;;;;;;6216687;23;20027;-77
2021/07/21 07:12:38;;;;;;;38.40;21.95;;;19.80;79.40;;;;;;6190473;23;20021;-77
2021/07/21 07:15:07;;;;;;;36.17;21.75;;;19.80;79.20;;;;;;6216678;23;20039;-77
2021/07/21 07:17:34;;;;;;;29.40;21.08;;;19.90;79.10;;;;;;6216221;23;20020;-78
2021/07/21 07:20:02;;;;;;;35.95;21.77;;;19.90;79.10;;;;;;6216693;23;20043;-77
2021/07/21 07:22:29;;;;;;;36.53;20.35;;;19.90;79.20;;;;;;6216708;23;20039;-75
2021/07/21 07:24:56;;;;;;;33.47;21.23;;;19.90;79.10;;;;;;6216172;23;20026;-76
2021/07/21 07:27:23;;;;;;;38.70;21.85;;;20.00;79.20;;;;;;6216584;23;20031;-76
2021/07/21 07:29:53;;;;;;;30.23;20.50;;;20.10;79.20;;;;;;6216584;23;20360;-83
2021/07/21 07:32:20;;;;;;;29.83;20.50;;;20.20;79.10;;;;;;6189277;23;20021;-78
2021/07/21 07:34:47;;;;;;;27.52;18.40;;;20.40;78.90;;;;;;6216495;23;20021;-78
2021/07/21 07:37:15;;;;;;;30.30;19.58;;;20.40;78.50;;;;;;6216023;23;20031;-75
2021/07/21 07:39:42;;;;;;;34.63;20.20;;;20.50;77.90;;;;;;6215962;23;20472;-78
2021/07/21 07:42:09;;;;;;;27.98;18.05;;;20.60;77.50;;;;;;6189799;23;20461;-76
2021/07/21 07:44:37;;;;;;;28.13;17.67;;;20.70;77.50;;;;;;6216031;23;20091;-77
2021/07/21 07:47:04;;;;;;;22.10;16.75;;;20.80;77.20;;;;;;6216150;23;20025;-77
2021/07/21 07:49:32;;;;;;;27.50;16.80;;;20.90;77.00;;;;;;6216122;23;20100;-77
2021/07/21 07:51:59;;;;;;;26.75;17.25;;;21.00;76.70;;;;;;6216491;23;20020;-77
2021/07/21 07:54:26;;;;;;;26.20;17.48;;;21.10;76.20;;;;;;6215987;23;20024;-76
2021/07/21 07:56:53;;;;;;;27.45;17.55;;;21.20;76.20;;;;;;6187664;23;20016;-75
2021/07/21 07:59:20;;;;;;;27.30;17.05;;;21.30;76.10;;;;;;6214137;23;20043;-77
2021/07/21 08:01:47;;;;;;;29.98;17.25;;;21.40;76.20;;;;;;6188686;23;20016;-78
2021/07/21 08:04:15;;;;;;;34.60;18.40;;;21.40;76.00;;;;;;6215258;23;20027;-76
2021/07/21 08:06:42;;;;;;;32.03;17.95;;;21.50;75.90;;;;;;6214956;23;20022;-78
2021/07/21 08:09:15;;;;;;;29.55;18.88;;;21.60;75.80;;;;;;6214567;23;20030;-76
2021/07/21 08:11:48;;;;;;;30.10;17.20;;;21.60;75.50;;;;;;6214881;23;20099;-78
2021/07/21 08:14:17;;;;;;;29.33;18.43;;;21.70;75.10;;;;;;6215279;23;20040;-75
2021/07/21 08:16:47;;;;;;;28.40;18.30;;;21.80;75.20;;;;;;6214706;23;20416;-76
2021/07/21 08:19:14;;;;;;;28.75;18.55;;;21.80;75.40;;;;;;6214864;23;20020;-79
2021/07/21 08:21:41;;;;;;;29.75;17.83;;;21.90;75.40;;;;;;6188356;23;20020;-74
2021/07/21 08:24:09;;;;;;;27.95;17.27;;;21.90;73.20;;;;;;6214934;23;20024;-75
2021/07/21 08:26:36;;;;;;;26.52;16.25;;;22.00;73.30;;;;;;6215064;23;20027;-76
2021/07/21 08:29:03;;;;;;;25.95;18.13;;;22.10;73.50;;;;;;6214831;23;20021;-77
2021/07/21 08:31:31;;;;;;;24.80;17.52;;;22.10;73.00;;;;;;6214975;23;20042;-76
2021/07/21 08:34:01;;;;;;;24.65;17.50;;;22.20;72.50;;;;;;6188681;23;20476;-76
2021/07/21 08:36:30;;;;;;;24.58;17.20;;;22.30;72.60;;;;;;6213928;23;20024;-79
2021/07/21 08:38:57;;;;;;;23.98;15.20;;;22.40;72.90;;;;;;6214490;23;20344;-76
2021/07/21 08:41:27;;;;;;;23.23;15.60;;;22.50;72.30;;;;;;6214799;23;20360;-78
2021/07/21 08:43:55;;;;;;;21.83;15.18;;;22.60;71.00;;;;;;6214339;23;20024;-79
2021/07/21 08:46:22;;;;;;;23.60;15.30;;;22.80;70.00;;;;;;6187590;23;20372;-76
2021/07/21 08:48:50;;;;;;;23.13;15.73;;;22.80;69.40;;;;;;6188308;23;20100;-75
2021/07/21 08:51:22;;;;;;;21.90;14.35;;;22.90;68.90;;;;;;6188665;23;20056;-79
2021/07/21 08:53:51;;;;;;;25.52;16.25;;;22.90;69.00;;;;;;6188563;23;20027;-77
2021/07/21 08:56:19;;;;;;;19.25;13.93;;;23.00;69.40;;;;;;6188765;23;20021;-77
2021/07/21 08:58:49;;;;;;;21.85;13.68;;;23.00;68.80;;;;;;6214185;23;20017;-77
2021/07/21 09:01:18;;;;;;;20.33;12.90;;;22.90;66.40;;;;;;6214738;23;20100;-77
2021/07/21 09:03:46;;;;;;;19.42;13.27;;;23.00;65.90;;;;;;6188294;23;20020;-77
2021/07/21 09:06:13;;;;;;;18.20;12.32;;;23.10;66.10;;;;;;6214236;23;20469;-76
2021/07/21 09:08:43;;;;;;;18.50;12.75;;;23.10;65.60;;;;;;6214140;23;20108;-76
2021/07/21 09:11:11;;;;;;;17.38;12.38;;;23.20;65.50;;;;;;6214191;23;20020;-78
2021/07/21 09:13:39;;;;;;;21.67;13.25;;;23.30;65.80;;;;;;6187657;23;20021;-77
2021/07/21 09:16:07;;;;;;;19.73;12.88;;;23.40;65.80;;;;;;6188691;23;20048;-76
2021/07/21 09:18:52;;;;;;;21.13;13.32;;;23.50;65.60;;;;;;6214635;23;20043;-76
2021/07/21 09:21:22;;;;;;;22.80;12.35;;;23.50;65.40;;;;;;6213621;23;20473;-75
2021/07/21 09:23:53;;;;;;;17.30;12.25;;;23.60;65.20;;;;;;6214759;23;20233;-77
2021/07/21 09:26:34;;;;;;;16.23;11.13;;;23.70;65.20;;;;;;6214397;23;20021;-76
2021/07/21 09:29:01;;;;;;;18.33;12.55;;;23.80;64.80;;;;;;6214605;23;20043;-77
2021/07/21 09:31:35;;;;;;;18.98;13.45;;;23.80;64.20;;;;;;6214660;23;20021;-78
2021/07/21 09:34:18;;;;;;;20.13;12.25;;;23.80;64.60;;;;;;6187496;23;20420;-77
2021/07/21 09:36:45;;;;;;;18.52;12.65;;;23.90;64.50;;;;;;6214130;23;20029;-76
2021/07/21 09:39:13;;;;;;;20.63;12.43;;;23.90;64.50;;;;;;6214485;23;20021;-78
2021/07/21 09:41:51;;;;;;;23.70;12.57;;;23.90;64.50;;;;;;6214200;23;20023;-77
2021/07/21 09:44:53;;;;;;;18.50;13.15;;;24.00;64.20;;;;;;6213734;23;20023;-75
2021/07/21 09:47:22;;;;;;;18.95;12.68;;;24.10;64.30;;;;;;6063894;23;20023;-79
2021/07/21 09:50:10;;;;;;;20.98;13.73;;;24.10;64.20;;;;;;6063442;23;20033;-75
2021/07/21 09:52:46;;;;;;;24.25;13.70;;;24.20;65.00;;;;;;6063955;23;20027;-75
2021/07/21 09:55:15;;;;;;;19.35;11.85;;;24.30;65.40;;;;;;6064011;23;20023;-79
2021/07/21 09:57:55;;;;;;;18.52;12.57;;;24.30;64.70;;;;;;6063339;23;20022;-76
2021/07/21 10:00:23;;;;;;;17.65;13.25;;;24.40;65.00;;;;;;6039741;23;20408;-79
2021/07/21 10:03:06;;;;;;;23.58;15.38;;;24.40;65.40;;;;;;6064272;23;20064;-79
2021/07/21 10:05:34;;;;;;;21.73;15.80;;;24.40;65.60;;;;;;6040112;23;20023;-75
2021/07/21 10:08:04;;;;;;;20.73;14.73;;;24.50;65.00;;;;;;6063974;23;20042;-76
2021/07/21 10:10:32;;;;;;;20.45;13.00;;;24.50;65.50;;;;;;6040126;23;20023;-78
2021/07/21 10:13:08;;;;;;;18.20;11.95;;;24.60;64.80;;;;;;6063208;23;20123;-79
2021/07/21 10:15:35;;;;;;;18.88;10.05;;;24.60;64.10;;;;;;6064200;23;20106;-75
2021/07/21 10:18:10;;;;;;;14.63;10.85;;;24.70;63.50;;;;;;6063738;23;20030;-79
2021/07/21 10:20:38;;;;;;;15.48;10.35;;;24.70;63.10;;;;;;6039717;23;20030;-78
2021/07/21 10:23:07;;;;;;;15.32;11.02;;;24.70;63.90;;;;;;6121389;23;20023;-78
2021/07/21 10:25:38;;;;;;;14.23;9.95;;;24.80;63.80;;;;;;6213828;23;20024;-78
2021/07/21 10:28:07;;;;;;;19.42;11.23;;;24.80;62.60;;;;;;6213917;23;20021;-76
2021/07/21 10:30:37;;;;;;;16.55;11.45;;;24.80;62.70;;;;;;6187364;23;20027;-79
2021/07/21 10:33:05;;;;;;;21.15;11.32;;;24.90;62.40;;;;;;6213594;23;20035;-76
2021/07/21 10:35:32;;;;;;;15.20;10.90;;;24.90;62.40;;;;;;6213548;23;20103;-80
2021/07/21 10:38:00;;;;;;;17.73;11.30;;;25.00;61.80;;;;;;6182057;23;20025;-78
2021/07/21 10:40:30;;;;;;;17.10;10.77;;;25.10;61.60;;;;;;6183790;23;20023;-76
2021/07/21 10:42:59;;;;;;;18.58;10.63;;;25.10;61.90;;;;;;6182258;23;20021;-79
2021/07/21 10:45:32;;;;;;;15.48;10.73;;;25.10;61.60;;;;;;6183462;23;20024;-76
2021/07/21 10:48:19;;;;;;;17.03;11.37;;;25.20;62.00;;;;;;6183622;23;20096;-77
2021/07/21 10:51:05;;;;;;;16.73;11.60;;;25.10;61.60;;;;;;6183981;23;20043;-77
2021/07/21 10:53:42;;;;;;;14.38;10.90;;;25.10;61.20;;;;;;6184162;23;20027;-80
2021/07/21 10:59:12;;;;;;;14.80;10.30;;;25.20;62.10;;;;;;6183370;23;20097;-78
2021/07/21 11:01:48;;;;;;;17.95;10.85;;;25.20;61.70;;;;;;6183516;23;20338;-78
2021/07/21 11:04:16;;;;;;;15.80;10.45;;;25.30;61.90;;;;;;6183219;23;20103;-76
2021/07/21 11:06:49;;;;;;;22.17;12.00;;;25.30;61.60;;;;;;6184093;23;20365;-78
2021/07/21 11:09:28;;;;;;;16.52;10.52;;;25.40;60.20;;;;;;6185506;23;20021;-78
2021/07/21 11:11:58;;;;;;;18.17;11.40;;;25.40;60.90;;;;;;6185019;23;20473;-79
2021/07/21 11:14:32;;;;;;;17.85;9.52;;;25.50;62.20;;;;;;6185976;23;20045;-79
2021/07/21 11:17:10;;;;;;;16.08;10.45;;;25.60;63.20;;;;;;6185535;23;20461;-77
2021/07/21 11:19:48;;;;;;;16.67;10.40;;;25.60;62.40;;;;;;6185103;23;20021;-78
2021/07/21 11:22:28;;;;;;;17.25;11.27;;;25.70;61.60;;;;;;6185866;23;20074;-79
2021/07/21 11:25:21;;;;;;;16.02;11.48;;;25.80;61.00;;;;;;6185281;23;20028;-78
2021/07/21 11:28:02;;;;;;;16.85;11.80;;;25.80;60.30;;;;;;6185346;23;20021;-78
2021/07/21 11:30:44;;;;;;;19.10;11.32;;;25.90;60.40;;;;;;6185278;23;20539;-76
2021/07/21 11:33:42;;;;;;;14.20;10.43;;;25.90;60.60;;;;;;6185354;23;20027;-76
2021/07/21 11:36:38;;;;;;;18.50;11.57;;;25.90;60.60;;;;;;6189938;23;20028;-80
2021/07/21 11:39:09;;;;;;;19.25;10.98;;;25.90;59.70;;;;;;6214900;23;20046;-75
2021/07/21 11:41:47;;;;;;;18.27;11.05;;;26.00;59.60;;;;;;6215088;23;20074;-76
2021/07/21 11:44:22;;;;;;;16.75;11.18;;;26.00;59.40;;;;;;6215626;23;20017;-76
2021/07/21 11:46:50;;;;;;;17.23;10.63;;;26.10;60.10;;;;;;6188621;23;20479;-78
2021/07/21 11:49:25;;;;;;;19.55;10.30;;;26.20;60.00;;;;;;6215172;23;20021;-76
2021/07/21 11:51:55;;;;;;;17.55;10.25;;;26.20;60.70;;;;;;6188767;23;20494;-79
2021/07/21 11:54:30;;;;;;;16.83;10.65;;;26.20;60.30;;;;;;6215324;23;20044;-75
2021/07/21 11:56:59;;;;;;;16.55;9.85;;;26.20;60.60;;;;;;6215156;23;20024;-79
2021/07/21 11:59:32;;;;;;;20.75;10.73;;;26.30;59.90;;;;;;6214883;23;20538;-77
2021/07/21 12:02:13;;;;;;;18.73;10.57;;;26.30;60.10;;;;;;6214590;23;20027;-80
2021/07/21 12:04:45;;;;;;;19.58;10.32;;;26.40;60.40;;;;;;6215060;23;20496;-78
2021/07/21 12:07:15;;;;;;;16.85;10.32;;;26.50;60.50;;;;;;6214831;23;20021;-77
2021/07/21 12:09:46;;;;;;;16.45;10.82;;;26.50;58.60;;;;;;6189172;23;20040;-80
2021/07/21 12:12:18;;;;;;;17.75;9.52;;;26.60;59.90;;;;;;6215343;23;20025;-80
2021/07/21 12:14:50;;;;;;;13.85;10.50;;;26.70;59.90;;;;;;6215384;23;20095;-79
2021/07/21 12:17:18;;;;;;;15.57;10.10;;;26.70;59.90;;;;;;6188112;23;20021;-79
2021/07/21 12:19:56;;;;;;;14.40;9.95;;;26.60;59.00;;;;;;6188634;23;20016;-77
2021/07/21 12:22:25;;;;;;;15.95;10.95;;;26.60;59.80;;;;;;6214984;23;20023;-76
2021/07/21 12:24:55;;;;;;;18.88;10.43;;;26.60;59.10;;;;;;6214978;23;20032;-78
2021/07/21 12:27:43;;;;;;;16.25;10.23;;;26.60;59.20;;;;;;6215059;23;20020;-78
2021/07/21 12:30:12;;;;;;;16.05;9.23;;;26.60;58.70;;;;;;6215352;23;20020;-79
2021/07/21 12:32:39;;;;;;;18.52;9.90;;;26.70;58.50;;;;;;6214222;23;20606;-77
2021/07/21 12:35:09;;;;;;;14.40;9.80;;;26.80;59.20;;;;;;6188811;23;20026;-77
2021/07/21 12:37:44;;;;;;;17.98;10.07;;;26.80;59.00;;;;;;6215040;23;20023;-77
2021/07/21 12:40:18;;;;;;;17.17;10.05;;;26.80;58.70;;;;;;6188392;23;20017;-78
2021/07/21 12:42:57;;;;;;;14.23;10.32;;;26.90;59.10;;;;;;6214633;23;20606;-78
2021/07/21 12:45:27;;;;;;;14.70;10.15;;;26.90;60.10;;;;;;6214378;23;20375;-76
2021/07/21 12:47:56;;;;;;;18.15;10.70;;;27.00;60.90;;;;;;6214624;23;20020;-80
2021/07/21 12:50:23;;;;;;;13.70;10.05;;;27.10;61.30;;;;;;6214792;23;20020;-76
2021/07/21 12:53:15;;;;;;;15.10;9.93;;;27.10;60.60;;;;;;6214713;23;20021;-80